tititudorancea.com
Station Historical Data
Daily Summary for August 28, 2018 Units:  Metric    English   Both
« Previous Day
Next Day »
Daily Weekly Monthly Yearly Custom
  High: Low: Average:
Temperature: -17.8 °C -1.3 °C 4.4 °C
Dew Point: -17.8 °C -2.2 °C 0.9 °C
Humidity: Humidity % 53 % 80 %
Wind Speed: 0 km/h 0 km/h 5 km/h
Wind Gust: 0 km/h - -
Wind:- - SSE
Pressure: 0 hPa 1020.9 hPa -
Precipitation: 0 mm    
Historical Graphs
 
 
Ararat weather Find more about Weather in Ararat, AU


 



 


Tabular Data for August 28, 2018
Time Temperature Dew Point Pressure Wind Wind Speed Wind Gust Humidity Rainfall Rate (Hourly)
-17.8 °C -17.8 °C 0 hPa Calm     Humidity % 0 mm
00:04 2.2 °C 1 °C 1026.3 hPa Calm     92 % 0 mm
00:09 2.1 °C 0.9 °C 1026.3 hPa Calm     92 % 0 mm
00:14 2 °C 0.8 °C 1026.3 hPa Calm     92 % 0 mm
00:19 1.9 °C 0.7 °C 1026.3 hPa Calm     92 % 0 mm
00:24 1.8 °C 0.7 °C 1026.3 hPa Calm     92 % 0 mm
00:29 1.7 °C 0.6 °C 1026.3 hPa Calm     92 % 0 mm
00:34 1.6 °C 0.4 °C 1026.3 hPa Calm     92 % 0 mm
00:39 1.6 °C 0.4 °C 1026.3 hPa Calm     92 % 0 mm
00:44 1.5 °C 0.3 °C 1026.3 hPa Calm     92 % 0 mm
00:49 1.4 °C 0.4 °C 1026.3 hPa SSE 3.7 km/h 1.6 km/h 93 % 0 mm
00:54 1.5 °C 0.5 °C 1026.3 hPa Calm     93 % 0 mm
00:59 1.5 °C 0.5 °C 1026.3 hPa Calm     93 % 0 mm
01:04 1.5 °C 0.5 °C 1026.3 hPa Calm     93 % 0 mm
01:09 1.5 °C 0.5 °C 1026 hPa Calm     93 % 0 mm
01:14 1.4 °C 0.4 °C 1026 hPa Calm     93 % 0 mm
01:19 1.5 °C 0.5 °C 1026 hPa Calm     93 % 0 mm
01:24 1.5 °C 0.5 °C 1026 hPa Calm     93 % 0 mm
01:29 1.4 °C 0.4 °C 1026 hPa Calm     93 % 0 mm
01:34 1.3 °C 0.3 °C 1026 hPa Calm     93 % 0 mm
01:39 1.3 °C 0.3 °C 1026 hPa Calm     93 % 0 mm
01:44 1 °C -0.2 °C 1026 hPa Calm     92 % 0 mm
01:49 0.8 °C -0.2 °C 1026 hPa Calm     93 % 0 mm
01:54 0.7 °C -0.3 °C 1026 hPa Calm     93 % 0 mm
01:59 0.6 °C -0.4 °C 1026 hPa Calm     93 % 0 mm
02:04 0.4 °C -0.6 °C 1026 hPa Calm     93 % 0 mm
02:09 0.2 °C -0.8 °C 1026 hPa Calm     93 % 0 mm
02:14 0.1 °C -0.9 °C 1026 hPa Calm     93 % 0 mm
02:19 -0.1 °C -1.1 °C 1026 hPa Calm     93 % 0 mm
02:24 -0.1 °C -1.1 °C 1025.6 hPa Calm     93 % 0 mm
02:29 -0.2 °C -1.2 °C 1025.6 hPa Calm     93 % 0 mm
02:34 -0.4 °C -1.4 °C 1025.6 hPa Calm     93 % 0 mm
02:39 -0.3 °C -1.3 °C 1025.6 hPa Calm     93 % 0 mm
02:44 -0.3 °C -1.3 °C 1025.6 hPa Calm     93 % 0 mm
02:49 -0.3 °C -1.3 °C 1025.6 hPa Calm     93 % 0 mm
02:54 -0.5 °C -1.5 °C 1025.6 hPa Calm     93 % 0 mm
02:59 -0.6 °C -1.6 °C 1025.6 hPa Calm     93 % 0 mm
03:04 -0.6 °C -1.6 °C 1025.6 hPa Calm     93 % 0 mm
03:09 -0.6 °C -1.6 °C 1025.6 hPa Calm     93 % 0 mm
03:14 -0.7 °C -1.7 °C 1025.6 hPa Calm     93 % 0 mm
03:19 -0.8 °C -1.8 °C 1025.6 hPa SSE 1.9 km/h 0.5 km/h 93 % 0 mm
03:24 -0.9 °C -1.9 °C 1025.6 hPa SSE 1.9 km/h 0.8 km/h 93 % 0 mm
03:29 -0.9 °C -1.9 °C 1025.6 hPa Calm     93 % 0 mm
03:34 -0.9 °C -1.8 °C 1025.6 hPa Calm     94 % 0 mm
03:39 -1 °C -2 °C 1025.3 hPa Calm     93 % 0 mm
03:44 -1.1 °C -2.1 °C 1025.6 hPa Calm     93 % 0 mm
03:49 -1.1 °C -2.1 °C 1025.6 hPa Calm     93 % 0 mm
03:54 -1.2 °C -2.2 °C 1025.6 hPa Calm     93 % 0 mm
03:59 -1.2 °C -2.2 °C 1025.6 hPa Calm     93 % 0 mm
04:04 -1.2 °C -2.1 °C 1025.6 hPa Calm     94 % 0 mm
04:09 -1.3 °C -2.1 °C 1025.6 hPa Calm     94 % 0 mm
04:14 -1.2 °C -2.1 °C 1025.6 hPa Calm     94 % 0 mm
04:19 -1.3 °C -2.1 °C 1025.3 hPa Calm     94 % 0 mm
04:24 -1.3 °C -2.2 °C 1025.3 hPa Calm     94 % 0 mm
04:29 -1.3 °C -2.2 °C 1025.3 hPa Calm     94 % 0 mm
04:34 -1.3 °C -2.2 °C 1025.3 hPa North 5.6 km/h   94 % 0 mm
04:39 -1.3 °C -2.1 °C 1025.3 hPa SSE 3.7 km/h 1.4 km/h 94 % 0 mm
04:44 -1.2 °C -2.1 °C 1025.3 hPa Calm     94 % 0 mm
04:49 -1.2 °C -2 °C 1025.3 hPa Calm     94 % 0 mm
04:54 -1.1 °C -1.9 °C 1025.3 hPa Calm     94 % 0 mm
04:59 -1.1 °C -1.9 °C 1025.3 hPa Calm     94 % 0 mm
05:04 -1.1 °C -1.9 °C 1025.3 hPa Calm     94 % 0 mm
05:09 -1 °C -1.8 °C 1025.3 hPa Calm     94 % 0 mm
05:14 -0.9 °C -1.7 °C 1025.3 hPa Calm     94 % 0 mm
05:19 -0.8 °C -1.7 °C 1025.3 hPa Calm     94 % 0 mm
05:24 -0.7 °C -1.4 °C 1025.3 hPa Calm     95 % 0 mm
05:29 -0.6 °C -1.3 °C 1025.3 hPa Calm     95 % 0 mm
05:34 -0.5 °C -1.2 °C 1025.3 hPa Calm     95 % 0 mm
05:39 -0.4 °C -1.1 °C 1025.3 hPa Calm     95 % 0 mm
05:44 -0.4 °C -1.1 °C 1024.9 hPa Calm     95 % 0 mm
05:49 -0.3 °C -1.1 °C 1024.9 hPa Calm     95 % 0 mm
05:54 -0.3 °C -1 °C 1024.9 hPa Calm     95 % 0 mm
05:59 -0.2 °C -0.9 °C 1024.9 hPa Calm     95 % 0 mm
06:04 -0.1 °C -0.8 °C 1024.9 hPa Calm     95 % 0 mm
06:09 0 °C -0.7 °C 1024.9 hPa Calm     95 % 0 mm
06:14 0.1 °C -0.7 °C 1024.9 hPa Calm     95 % 0 mm
06:19 0.1 °C -0.6 °C 1025.3 hPa Calm     95 % 0 mm
06:24 0.2 °C -0.6 °C 1025.3 hPa Calm     95 % 0 mm
06:29 0.2 °C -0.5 °C 1025.3 hPa Calm     95 % 0 mm
06:34 0.3 °C -0.4 °C 1025.3 hPa Calm     95 % 0 mm
06:39 0.4 °C -0.3 °C 1025.3 hPa Calm     95 % 0 mm
06:44 0.5 °C -0.2 °C 1024.9 hPa Calm     95 % 0 mm
06:49 0.6 °C -0.1 °C 1025.3 hPa SSE 3.7 km/h 1 km/h 95 % 0 mm
06:54 0.7 °C 0 °C 1025.3 hPa SSE 5.6 km/h 3.9 km/h 95 % 0 mm
06:59 0.8 °C 0.1 °C 1025.3 hPa Calm     95 % 0 mm
07:04 0.9 °C 0.2 °C 1025.3 hPa SSE 1.6 km/h   95 % 0 mm
07:09 1.1 °C 0.3 °C 1025.3 hPa Calm     95 % 0 mm
07:14 1.2 °C 0.5 °C 1025.3 hPa Calm     95 % 0 mm
07:19 1.6 °C 1 °C 1025.3 hPa Calm     96 % 0 mm
07:24 1.7 °C 0.9 °C 1025.3 hPa Calm     95 % 0 mm
07:29 1.7 °C 1 °C 1025.3 hPa Calm     95 % 0 mm
07:34 1.8 °C 1.1 °C 1025.3 hPa Calm     95 % 0 mm
07:39 1.9 °C 1.2 °C 1025.3 hPa Calm     95 % 0 mm
07:44 2 °C 1.3 °C 1025.6 hPa SSE 1.6 km/h   95 % 0 mm
07:49 2.1 °C 1.4 °C 1025.3 hPa SSE 3.2 km/h 1.1 km/h 95 % 0 mm
07:54 2.2 °C 1.7 °C 1025.3 hPa Calm     96 % 0 mm
07:59 2.3 °C 1.6 °C 1025.3 hPa Calm     95 % 0 mm
08:04 2.4 °C 1.9 °C 1025.3 hPa Calm     96 % 0 mm
08:09 2.7 °C 2.1 °C 1025.3 hPa Calm     96 % 0 mm
08:14 3 °C 2.4 °C 1025.3 hPa SSE 6.4 km/h 2.9 km/h 96 % 0 mm
08:19 3.6 °C 3 °C 1025.6 hPa SSE 5.6 km/h 4.7 km/h 96 % 0 mm
08:24 3.9 °C 3.4 °C 1025.6 hPa North 6.4 km/h 3.2 km/h 96 % 0 mm
08:29 4.1 °C 3.6 °C 1025.6 hPa Calm     96 % 0 mm
08:34 4.2 °C 3.7 °C 1025.6 hPa SSE 5.6 km/h 3.5 km/h 96 % 0 mm
08:39 4.3 °C 3.7 °C 1025.6 hPa SSE 1.9 km/h   96 % 0 mm
08:42 4.3 °C 3.8 °C 1025.6 hPa SSE 3.7 km/h 0.3 km/h 96 % 0 mm
08:49 4.2 °C 3.5 °C 1025.6 hPa North 3.7 km/h 0.6 km/h 95 % 0 mm
08:54 4.3 °C 3.6 °C 1025.3 hPa SSE 3.7 km/h   95 % 0 mm
08:59 4.3 °C 3.6 °C 1025.3 hPa SSE 3.7 km/h 1.3 km/h 95 % 0 mm
09:04 4.4 °C 3.9 °C 1025.3 hPa SSE 1.9 km/h 0.6 km/h 96 % 0 mm
09:09 4.8 °C 4.2 °C 1025.3 hPa SSE 3.2 km/h 2.1 km/h 96 % 0 mm
09:14 5.2 °C 4.6 °C 1025.3 hPa SSE 5.6 km/h 3.5 km/h 96 % 0 mm
09:19 5.7 °C 5.1 °C 1025.3 hPa SSE 8 km/h 6.9 km/h 96 % 0 mm
09:24 5.6 °C 4.9 °C 1025.3 hPa SSE 5.6 km/h 5.1 km/h 95 % 0 mm
09:29 5.6 °C 4.7 °C 1025.3 hPa SSE 5.6 km/h 4 km/h 94 % 0 mm
09:34 5.7 °C 4.8 °C 1024.9 hPa SSE 6.4 km/h 7.6 km/h 94 % 0 mm
09:39 6.1 °C 5.3 °C 1024.9 hPa SSE 7.4 km/h 3.4 km/h 95 % 0 mm
09:44 6.2 °C 5.2 °C 1024.9 hPa SSE 6.4 km/h 3.9 km/h 93 % 0 mm
09:49 6.5 °C 5.3 °C 1024.9 hPa SSE 7.4 km/h 5.1 km/h 92 % 0 mm
09:54 6.7 °C 5.3 °C 1024.9 hPa SSE 9.3 km/h 2.7 km/h 91 % 0 mm
09:59 6.9 °C 4.8 °C 1024.9 hPa SSE 13 km/h 7.6 km/h 86 % 0 mm
10:04 7.1 °C 4 °C 1024.9 hPa SSE 14.8 km/h 7.2 km/h 81 % 0 mm
10:09 7.2 °C 3.8 °C 1024.9 hPa SSE 14.8 km/h 8.7 km/h 79 % 0 mm
10:14 7.7 °C 3.7 °C 1024.9 hPa SSE 16.7 km/h 11.4 km/h 76 % 0 mm
10:19 7.7 °C 3.4 °C 1024.9 hPa SSE 14.8 km/h 10.1 km/h 74 % 0 mm
10:24 7.7 °C 2.7 °C 1024.9 hPa SE 17.7 km/h 15.8 km/h 71 % 0 mm
10:29 7.8 °C 2.7 °C 1024.9 hPa SE 13 km/h 6.8 km/h 70 % 0 mm
10:34 7.7 °C 2.4 °C 1024.6 hPa SE 11.1 km/h 9.5 km/h 69 % 0 mm
10:39 7.9 °C 2.8 °C 1024.6 hPa SE 14.8 km/h 10.1 km/h 70 % 0 mm
10:44 8.2 °C 2.7 °C 1024.6 hPa SSE 14.8 km/h 7.9 km/h 68 % 0 mm
10:49 8.6 °C 2.8 °C 1024.6 hPa SSE 14.8 km/h 9.8 km/h 67 % 0 mm
10:54 8.9 °C 2.7 °C 1024.6 hPa SSE 13 km/h 6.9 km/h 65 % 0 mm
10:59 9.3 °C 3.1 °C 1024.6 hPa SE 11.3 km/h 7.2 km/h 65 % 0 mm
11:04 9.3 °C 2.6 °C 1024.6 hPa SSE 9.3 km/h 7.1 km/h 63 % 0 mm
11:09 9.5 °C 2.8 °C 1024.3 hPa SE 14.8 km/h 9.3 km/h 63 % 0 mm
11:14 9.7 °C 2.5 °C 1024.3 hPa SE 13 km/h 6.8 km/h 61 % 0 mm
11:19 9.6 °C 2.2 °C 1024.3 hPa SE 8 km/h 1.3 km/h 60 % 0 mm
11:24 9.7 °C 2.3 °C 1024.3 hPa SE 16.7 km/h 8.9 km/h 60 % 0 mm
11:29 10.1 °C 2.9 °C 1024.3 hPa SE 11.3 km/h 8.2 km/h 61 % 0 mm
11:34 10.3 °C 2.4 °C 1023.9 hPa SE 11.1 km/h 3.7 km/h 58 % 0 mm
11:39 10.6 °C 2.4 °C 1023.9 hPa SE 13 km/h 6.4 km/h 57 % 0 mm
11:44 10.4 °C 2.2 °C 1023.9 hPa SE 13 km/h 6.8 km/h 57 % 0 mm
11:49 10.4 °C 2.5 °C 1023.6 hPa SE 11.1 km/h 8.7 km/h 58 % 0 mm
11:54 10.4 °C 2.2 °C 1023.6 hPa SSE 14.8 km/h 9.3 km/h 57 % 0 mm
11:59 10 °C 2.3 °C 1023.6 hPa SSE 11.1 km/h 6.4 km/h 59 % 0 mm
12:04 10.1 °C 2.4 °C 1023.6 hPa SSE 14.8 km/h 10.3 km/h 59 % 0 mm
12:09 9.8 °C 2.8 °C 1023.6 hPa SSE 9.7 km/h 5.3 km/h 62 % 0 mm
12:14 9.5 °C 2.1 °C 1023.2 hPa SSE 16.7 km/h 10.9 km/h 60 % 0 mm
12:19 9.5 °C 2.6 °C 1023.2 hPa South 13 km/h 5.8 km/h 62 % 0 mm
12:24 9.5 °C 1.6 °C 1023.2 hPa South 8 km/h 5.5 km/h 58 % 0 mm
12:29 9.7 °C 2.1 °C 1023.2 hPa SSE 8 km/h 4.5 km/h 59 % 0 mm
12:34 10.1 °C 2.6 °C 1022.9 hPa SSE 14.5 km/h 8.4 km/h 60 % 0 mm
12:39 10.2 °C 2.5 °C 1022.9 hPa SSE 13 km/h 11.1 km/h 59 % 0 mm
12:44 9.9 °C 2.6 °C 1022.9 hPa SSE 14.8 km/h 8.9 km/h 60 % 0 mm
12:49 9.9 °C 2.2 °C 1022.9 hPa SSE 14.8 km/h 7.6 km/h 59 % 0 mm
12:54 10.1 °C 2.4 °C 1022.9 hPa SSE 13 km/h 10.3 km/h 59 % 0 mm
12:59 10.2 °C 2 °C 1022.9 hPa South 11.1 km/h 8.4 km/h 57 % 0 mm
13:04 9.9 °C 2 °C 1022.6 hPa South 18.5 km/h 12.7 km/h 58 % 0 mm
13:09 10.1 °C 2.4 °C 1022.6 hPa South 16.7 km/h 12.1 km/h 59 % 0 mm
13:14 10.9 °C 3 °C 1022.6 hPa South 12.9 km/h 9.2 km/h 58 % 0 mm
13:19 10.8 °C 3.1 °C 1022.6 hPa South 18.5 km/h 9.5 km/h 59 % 0 mm
13:24 10.4 °C 1.3 °C 1022.6 hPa SSE 14.8 km/h 9.7 km/h 53 % 0 mm
13:29 9.8 °C 1.2 °C 1022.6 hPa SSE 6.4 km/h 4.3 km/h 55 % 0 mm
13:34 10.2 °C 2.6 °C 1022.2 hPa SSE 9.7 km/h 9.2 km/h 59 % 0 mm
13:39 10.5 °C 2.3 °C 1022.2 hPa SSE 18.5 km/h 11.9 km/h 57 % 0 mm
13:44 10.1 °C 2.6 °C 1022.2 hPa SSE 11.1 km/h 3.5 km/h 60 % 0 mm
13:49 9.6 °C 1.7 °C 1022.2 hPa SSE 9.3 km/h 5.3 km/h 58 % 0 mm
13:54 9.5 °C 2.1 °C 1022.2 hPa SSE 8 km/h 3.2 km/h 60 % 0 mm
13:59 10.2 °C 2.5 °C 1021.9 hPa SSE 7.4 km/h 3.1 km/h 59 % 0 mm
14:04 10.3 °C 2.4 °C 1021.9 hPa South 16.7 km/h 12.6 km/h 58 % 0 mm
14:09 10.1 °C 2.4 °C 1021.9 hPa South 14.8 km/h 8.4 km/h 59 % 0 mm
14:14 9.8 °C 2.4 °C 1021.9 hPa South 11.1 km/h 4.7 km/h 60 % 0 mm
14:19 10 °C 2.3 °C 1021.9 hPa South 11.1 km/h 7.2 km/h 59 % 0 mm
14:24 10.4 °C 2.7 °C 1021.9 hPa South 18.5 km/h 9.5 km/h 59 % 0 mm
14:29 10.1 °C 2.6 °C 1021.9 hPa South 14.8 km/h 8.2 km/h 60 % 0 mm
14:34 9.7 °C 2.6 °C 1021.9 hPa South 11.3 km/h 10.1 km/h 61 % 0 mm
14:39 9.8 °C 2.6 °C 1021.9 hPa South 9.7 km/h 8.7 km/h 61 % 0 mm
14:44 10 °C 2.1 °C 1021.9 hPa South 16.7 km/h 12.9 km/h 58 % 0 mm
14:49 10.2 °C 1.8 °C 1021.6 hPa North 9.3 km/h 8.2 km/h 56 % 0 mm
14:54 10.2 °C 1.8 °C 1021.6 hPa South 9.7 km/h 6.3 km/h 56 % 0 mm
14:59 10.6 °C 2.4 °C 1021.6 hPa South 18.5 km/h 9.8 km/h 57 % 0 mm
15:04 10.7 °C 2.2 °C 1021.6 hPa South 18.5 km/h 13 km/h 56 % 0 mm
15:09 10.4 °C 1.8 °C 1021.6 hPa SSE 18.5 km/h 10 km/h 55 % 0 mm
15:14 10.1 °C 2.2 °C 1021.6 hPa South 13 km/h 2.9 km/h 58 % 0 mm
15:19 10.2 °C 1.5 °C 1021.6 hPa South 13 km/h 6.9 km/h 55 % 0 mm
15:24 10.4 °C 2.7 °C 1021.6 hPa SSE 14.5 km/h 9.3 km/h 59 % 0 mm
15:29 10.6 °C 3.1 °C 1021.2 hPa South 20.4 km/h 9 km/h 60 % 0 mm
15:34 10.5 °C 3.3 °C 1021.2 hPa SSE 11.1 km/h 7.1 km/h 61 % 0 mm
15:39 10 °C 2.8 °C 1021.2 hPa SSE 16.7 km/h 8.9 km/h 61 % 0 mm
15:44 9.8 °C 3.3 °C 1021.2 hPa SSE 14.8 km/h 8.4 km/h 64 % 0 mm
15:49 10 °C 2.8 °C 1021.2 hPa South 13 km/h 10.6 km/h 61 % 0 mm
15:54 10.2 °C 3 °C 1021.2 hPa SSE 11.3 km/h 11.4 km/h 61 % 0 mm
15:59 10.3 °C 3.1 °C 1021.2 hPa SSE 9.3 km/h 4 km/h 61 % 0 mm
16:04 10.4 °C 2.5 °C 1021.2 hPa SSE 18.5 km/h 13 km/h 58 % 0 mm
16:09 10.1 °C 2.2 °C 1021.2 hPa SSE 11.1 km/h 5.5 km/h 58 % 0 mm
16:14 9.7 °C 1.8 °C 1021.2 hPa SSE 7.4 km/h 5.6 km/h 58 % 0 mm
16:19 9.5 °C 1.9 °C 1021.2 hPa SSE 6.4 km/h 2.7 km/h 59 % 0 mm
16:24 9.5 °C 1.9 °C 1020.9 hPa SSE 8 km/h 5.3 km/h 59 % 0 mm
16:29 9.8 °C 1.9 °C 1021.2 hPa SSE 11.1 km/h 4.7 km/h 58 % 0 mm
16:34 10.1 °C 1.9 °C 1020.9 hPa SSE 13 km/h 10.3 km/h 57 % 0 mm
16:39 9.9 °C 1.8 °C 1021.2 hPa SSE 14.8 km/h 10 km/h 57 % 0 mm
16:44 9.7 °C 1.8 °C 1021.2 hPa SSE 9.3 km/h 8.2 km/h 58 % 0 mm
16:49 9.7 °C 2.1 °C 1020.9 hPa SSE 7.4 km/h 6.3 km/h 59 % 0 mm
16:54 9.8 °C 1.7 °C 1020.9 hPa SSE 9.3 km/h 6.8 km/h 57 % 0 mm
16:59 9.8 °C 1.7 °C 1021.2 hPa SSE 9.3 km/h 7.4 km/h 57 % 0 mm
17:04 9.8 °C 1.9 °C 1021.2 hPa SSE 9.3 km/h 6.4 km/h 58 % 0 mm
17:09 9.9 °C 2.3 °C 1020.9 hPa SSE 7.4 km/h 4.2 km/h 59 % 0 mm
17:14 9.9 °C 2.2 °C 1020.9 hPa SSE 6.4 km/h 5.5 km/h 59 % 0 mm
17:19 9.7 °C 2.3 °C 1020.9 hPa SSE 11.1 km/h 4.2 km/h 60 % 0 mm
17:24 9.5 °C 2.1 °C 1021.2 hPa SSE 9.3 km/h 2.3 km/h 60 % 0 mm
17:29 9.4 °C 2.2 °C 1021.2 hPa SSE 9.3 km/h 4.8 km/h 61 % 0 mm
17:34 9.3 °C 2.1 °C 1021.2 hPa SSE 11.1 km/h 4.3 km/h 61 % 0 mm
17:39 9.2 °C 2.3 °C 1020.9 hPa SSE 11.1 km/h 6.6 km/h 62 % 0 mm
17:44 9.1 °C 2.4 °C 1021.2 hPa SSE 9.3 km/h 7.4 km/h 63 % 0 mm
17:49 8.8 °C 2.3 °C 1021.2 hPa SSE 7.4 km/h 3.5 km/h 64 % 0 mm
17:54 8.5 °C 2.1 °C 1020.9 hPa SSE 6.4 km/h 3.7 km/h 64 % 0 mm
17:59 8.2 °C 2 °C 1020.9 hPa SSE 5.6 km/h 3.7 km/h 65 % 0 mm
18:04 8 °C 2.1 °C 1021.2 hPa SSE 3.7 km/h 1.3 km/h 66 % 0 mm
18:09 7.8 °C 2.1 °C 1021.2 hPa SSE 3.7 km/h 1.3 km/h 67 % 0 mm
18:14 7.6 °C 2 °C 1021.2 hPa SSE 3.7 km/h 1 km/h 68 % 0 mm
18:19 7.3 °C 2 °C 1021.2 hPa SSE 3.7 km/h 2.3 km/h 69 % 0 mm
18:24 7.1 °C 2 °C 1021.2 hPa SSE 3.7 km/h 1.6 km/h 70 % 0 mm
18:29 6.9 °C 2 °C 1021.2 hPa SSE 3.7 km/h 1.3 km/h 71 % 0 mm
18:34 6.7 °C 1.8 °C 1021.2 hPa SSE 1.9 km/h 1.4 km/h 71 % 0 mm
18:39 6.5 °C 1.8 °C 1021.2 hPa SSE 1.9 km/h   72 % 0 mm
18:44 6.3 °C 1.6 °C 1021.2 hPa SSE 3.7 km/h 3.9 km/h 72 % 0 mm
18:49 6.1 °C 1.6 °C 1021.2 hPa SSE 3.7 km/h 1.1 km/h 73 % 0 mm
18:54 5.9 °C 1.4 °C 1021.2 hPa SSE 1.9 km/h 1.8 km/h 73 % 0 mm
18:59 5.7 °C 1.4 °C 1021.2 hPa SSE 3.7 km/h 0.5 km/h 74 % 0 mm
19:04 5.4 °C 1.2 °C 1021.2 hPa SSE 1.6 km/h 1.3 km/h 74 % 0 mm
19:09 5.3 °C 1 °C 1021.2 hPa SSE 1.9 km/h   74 % 0 mm
19:14 5.1 °C 1.1 °C 1021.6 hPa Calm     75 % 0 mm
19:19 4.9 °C 0.9 °C 1021.6 hPa Calm     75 % 0 mm
19:24 4.8 °C 0.7 °C 1021.2 hPa SSE 1.9 km/h   75 % 0 mm
19:29 4.7 °C 0.8 °C 1021.2 hPa SSE 1.9 km/h 1.6 km/h 76 % 0 mm
19:34 4.6 °C 0.7 °C 1021.2 hPa SSE 1.9 km/h 0.6 km/h 76 % 0 mm
19:39 4.5 °C 0.8 °C 1021.2 hPa SSE 3.2 km/h 1.3 km/h 77 % 0 mm
19:44 4.4 °C 0.7 °C 1021.2 hPa Calm     77 % 0 mm
19:49 4.2 °C 0.7 °C 1021.2 hPa Calm     78 % 0 mm
19:54 4.2 °C 0.8 °C 1021.2 hPa Calm     79 % 0 mm
19:59 4.1 °C 0.9 °C 1021.6 hPa Calm     80 % 0 mm
20:04 3.9 °C 0.8 °C 1021.6 hPa SSE 1.9 km/h 0.8 km/h 80 % 0 mm
20:09 3.9 °C 0.9 °C 1021.6 hPa Calm     81 % 0 mm
20:14 3.9 °C 0.9 °C 1021.6 hPa Calm     81 % 0 mm
20:19 3.8 °C 0.8 °C 1021.6 hPa Calm     81 % 0 mm
20:24 3.7 °C 0.9 °C 1021.6 hPa Calm     82 % 0 mm
20:29 3.6 °C 0.9 °C 1021.9 hPa SSE 1.9 km/h 0.5 km/h 83 % 0 mm
20:34 3.5 °C 0.9 °C 1021.9 hPa Calm     83 % 0 mm
20:39 3.4 °C 0.8 °C 1021.6 hPa Calm     83 % 0 mm
20:44 3.3 °C 0.7 °C 1021.9 hPa Calm     83 % 0 mm
20:49 3.2 °C 0.8 °C 1021.9 hPa Calm     84 % 0 mm
20:54 3.1 °C 0.7 °C 1021.9 hPa Calm     84 % 0 mm
20:59 2.9 °C 0.4 °C 1021.9 hPa Calm     84 % 0 mm
21:04 2.8 °C 0.5 °C 1021.9 hPa Calm     85 % 0 mm
21:09 2.7 °C 0.4 °C 1021.9 hPa Calm     85 % 0 mm
21:14 2.7 °C 0.4 °C 1021.9 hPa SSE 3.7 km/h 1.9 km/h 85 % 0 mm
21:19 2.6 °C 0.3 °C 1021.9 hPa Calm     85 % 0 mm
21:24 2.6 °C 0.4 °C 1021.9 hPa Calm     86 % 0 mm
21:29 2.6 °C 0.4 °C 1022.2 hPa SSE 3.7 km/h 2.1 km/h 86 % 0 mm
21:34 2.5 °C 0.4 °C 1022.2 hPa SSE 1.9 km/h   86 % 0 mm
21:39 2.6 °C 0.4 °C 1022.2 hPa Calm     86 % 0 mm
21:44 2.7 °C 0.6 °C 1022.2 hPa Calm     86 % 0 mm
21:49 2.5 °C 0.4 °C 1022.2 hPa SSE 3.7 km/h 1.3 km/h 86 % 0 mm
21:54 2.5 °C 0.2 °C 1022.6 hPa Calm     85 % 0 mm
21:59 2.3 °C 0.2 °C 1022.2 hPa SSE 3.7 km/h 2.4 km/h 86 % 0 mm
22:04 2.3 °C 0.2 °C 1022.2 hPa Calm     86 % 0 mm
22:09 2.2 °C 0.1 °C 1022.2 hPa SSE 3.7 km/h 2.1 km/h 86 % 0 mm
22:14 2.1 °C 0.2 °C 1022.2 hPa SSE 1.9 km/h   87 % 0 mm
22:19 1.9 °C -0.2 °C 1022.2 hPa Calm     86 % 0 mm
22:24 1.9 °C -0.1 °C 1022.2 hPa Calm     87 % 0 mm
22:29 1.8 °C -0.2 °C 1022.2 hPa Calm     87 % 0 mm
22:34 1.7 °C -0.3 °C 1022.2 hPa Calm     87 % 0 mm
22:39 1.6 °C -0.4 °C 1021.9 hPa SSE 1.9 km/h 1.1 km/h 87 % 0 mm
22:44 1.6 °C -0.2 °C 1021.9 hPa SSE 3.7 km/h 2.3 km/h 88 % 0 mm
22:49 1.6 °C -0.2 °C 1021.9 hPa SSE 3.7 km/h 0.3 km/h 88 % 0 mm
22:54 1.4 °C -0.6 °C 1022.2 hPa SSE 3.7 km/h 4.3 km/h 87 % 0 mm
22:59 1.2 °C -0.6 °C 1022.2 hPa Calm     88 % 0 mm
23:04 1.1 °C -0.7 °C 1022.2 hPa Calm     88 % 0 mm
23:09 0.9 °C -0.9 °C 1021.9 hPa Calm     88 % 0 mm
23:14 0.7 °C -1.1 °C 1021.9 hPa Calm     88 % 0 mm
23:19 0.6 °C -1.2 °C 1021.9 hPa Calm     88 % 0 mm
23:24 0.4 °C -1.3 °C 1021.9 hPa Calm     88 % 0 mm
23:29 0.3 °C -1.3 °C 1021.9 hPa Calm     89 % 0 mm
23:34 0.3 °C -1.3 °C 1021.9 hPa Calm     89 % 0 mm
23:39 0.3 °C -1.3 °C 1021.9 hPa Calm     89 % 0 mm
23:44 0.2 °C -1.4 °C 1021.9 hPa Calm     89 % 0 mm
23:49 0 °C -1.6 °C 1021.9 hPa Calm     89 % 0 mm
23:54 -0.1 °C -1.7 °C 1021.9 hPa Calm     89 % 0 mm
23:59 -0.1 °C -1.5 °C 1021.9 hPa Calm     90 % 0 mm
Ararat Weather
Compliments of Weather Underground - 2.25 mb
Click here to send mail.


ABOUT

Live weather data from Ararat, Victoria, Australia, 3377
Data uploaded from Cumulus every 5 minutes to Weather Underground.
This site then downloads the raw data for formatting and display.
Metric and imperial data can be displayed. Graphs and historical data available.
Includes Sun and Moon times and rain image live from BOM.

Check out Ararat Weather on Facebook, Twitter and Google +

Help support ongoing costs by checking out the ads





Follow @AraratWeather